Time;durP1;ratioP1;P1;durP2;ratioP2;P2;SDS_P1;SDS_P2;PMS_P1;PMS_P2;Temp;Humidity;BMP_temperature;BMP_pressure;BME280_temperature;BME280_humidity;BME280_pressure;Samples;Min_cycle;Max_cycle;Signal;HPM_P1;HPM_P2
2023/05/26 00:00:34;;;;;;;;;7.50;7.00;;;;;21.78;40.91;101886.56;5065790;27;45477;-72
2023/05/26 00:03:01;;;;;;;;;9.00;7.00;;;;;21.77;41.18;101891.00;5062445;27;45454;-72
2023/05/26 00:05:27;;;;;;;;;7.50;5.25;;;;;21.75;41.00;101887.56;5064633;27;45328;-72
2023/05/26 00:07:53;;;;;;;;;9.00;7.00;;;;;21.78;40.58;101889.22;5052079;28;45451;-72
2023/05/26 00:10:18;;;;;;;;;8.25;7.00;;;;;21.75;40.96;101881.38;5081019;27;45419;-72
2023/05/26 00:12:43;;;;;;;;;8.75;6.50;;;;;21.76;40.69;101880.41;5067744;27;61382;-72
2023/05/26 00:15:09;;;;;;;;;6.75;6.00;;;;;21.73;40.69;101878.81;5084325;27;47105;-72
2023/05/26 00:17:36;;;;;;;;;8.75;7.25;;;;;21.74;40.86;101879.66;5059220;27;45434;-72
2023/05/26 00:20:01;;;;;;;;;5.25;5.25;;;;;21.74;40.58;101877.00;5073452;27;45371;-72
2023/05/26 00:22:27;;;;;;;;;6.75;6.00;;;;;21.74;41.16;101883.19;5075567;27;45600;-72
2023/05/26 00:24:52;;;;;;;;;7.25;6.25;;;;;21.73;40.53;101880.63;5072303;27;66349;-72
2023/05/26 00:27:17;;;;;;;;;9.67;6.00;;;;;21.75;40.56;101881.38;5078355;27;62048;-72
2023/05/26 00:29:43;;;;;;;;;8.50;7.25;;;;;21.73;40.72;101868.16;5068767;28;69703;-72
2023/05/26 00:32:08;;;;;;;;;8.00;6.00;;;;;21.73;40.71;101868.16;5066031;27;70663;-72
2023/05/26 00:34:33;;;;;;;;;8.00;7.00;;;;;21.73;40.93;101875.28;5073737;27;45398;-72
2023/05/26 00:37:00;;;;;;;;;6.00;5.50;;;;;21.74;40.63;101877.00;5070453;27;65053;-72
2023/05/26 00:39:26;;;;;;;;;8.25;7.50;;;;;21.72;41.10;101870.88;5070997;27;45481;-72
2023/05/26 00:41:52;;;;;;;;;10.50;9.00;;;;;21.71;41.14;101880.69;5059064;28;45403;-72
2023/05/26 00:44:17;;;;;;;;;8.75;8.75;;;;;21.70;40.69;101859.47;5067646;28;46566;-72
2023/05/26 00:46:42;;;;;;;;;7.75;6.25;;;;;21.71;40.98;101872.69;5068990;27;45578;-72
2023/05/26 00:49:08;;;;;;;;;8.75;6.50;;;;;21.70;40.59;101862.97;5073256;27;53347;-72
2023/05/26 00:51:35;;;;;;;;;8.00;7.00;;;;;21.69;40.94;101863.94;5068448;27;45546;-72
2023/05/26 00:54:00;;;;;;;;;6.00;6.00;;;;;21.70;40.58;101859.47;5079212;27;46925;-72
2023/05/26 00:56:27;;;;;;;;;7.75;7.75;;;;;21.69;40.95;101857.72;5074947;27;58283;-72
2023/05/26 00:58:53;;;;;;;;;7.00;6.00;;;;;21.69;40.65;101863.06;5070136;28;45323;-72
2023/05/26 01:01:19;;;;;;;;;11.00;7.25;;;;;21.69;41.06;101863.06;5073079;27;45734;-71
2023/05/26 01:03:45;;;;;;;;;8.25;8.00;;;;;21.69;41.06;101865.72;5078608;27;45394;-72
2023/05/26 01:06:11;;;;;;;;;8.50;7.75;;;;;21.69;41.04;101857.72;5070831;28;45674;-72
2023/05/26 01:08:36;;;;;;;;;9.50;7.75;;;;;21.68;40.62;101858.69;5072188;27;59417;-72
2023/05/26 01:11:22;;;;;;;;;8.00;8.00;;;;;21.68;40.79;101864.88;5052013;27;57124;-72
2023/05/26 01:13:52;;;;;;;;;8.00;7.00;;;;;21.67;40.84;101857.81;5069070;28;45727;-72
2023/05/26 01:16:23;;;;;;;;;8.25;7.00;;;;;21.67;41.12;101859.63;5066019;27;45554;-72
2023/05/26 01:18:55;;;;;;;;;10.75;10.00;;;;;21.67;40.71;101865.81;5070147;28;45498;-72
2023/05/26 01:21:21;;;;;;;;;5.50;4.50;;;;;21.67;41.03;101864.94;5063911;28;45394;-72
2023/05/26 01:24:11;;;;;;;;;7.75;7.00;;;;;21.66;40.95;101866.78;5073855;28;47097;-72
2023/05/26 01:26:54;;;;;;;;;7.00;5.50;;;;;21.65;40.77;101865.03;5072633;28;45434;-72
2023/05/26 01:29:21;;;;;;;;;9.25;8.75;;;;;21.64;41.21;101867.78;5064825;27;45594;-72
2023/05/26 01:31:47;;;;;;;;;8.00;6.75;;;;;21.64;40.56;101875.78;5069841;27;45359;-72
2023/05/26 01:34:12;;;;;;;;;6.75;6.00;;;;;21.64;40.56;101871.31;5080992;27;46428;-72
2023/05/26 01:36:37;;;;;;;;;10.25;9.00;;;;;21.64;40.91;101870.44;5073516;28;54479;-72
2023/05/26 01:39:04;;;;;;;;;9.50;9.00;;;;;21.62;40.81;101859.91;5070541;27;68476;-72
2023/05/26 01:41:46;;;;;;;;;8.00;5.50;;;;;21.64;41.15;101873.09;5069299;27;45324;-72
2023/05/26 01:44:25;;;;;;;;;11.75;7.00;;;;;21.64;40.69;101876.66;5071697;27;46591;-72
2023/05/26 01:46:51;;;;;;;;;9.25;7.50;;;;;21.62;41.08;101870.56;5060236;27;46050;-72
2023/05/26 01:49:23;;;;;;;;;9.00;6.75;;;;;21.61;40.77;101874.16;5066924;28;45565;-72
2023/05/26 01:51:58;;;;;;;;;9.25;6.50;;;;;21.61;40.71;101877.66;5080140;27;45515;-72
2023/05/26 01:54:26;;;;;;;;;7.50;7.50;;;;;21.61;40.71;101868.81;5067336;28;46975;-72
2023/05/26 01:56:56;;;;;;;;;6.75;6.75;;;;;21.61;40.64;101876.81;5081512;27;45925;-72
2023/05/26 01:59:21;;;;;;;;;8.00;6.75;;;;;21.62;40.68;101883.88;5075311;27;61537;-72
2023/05/26 02:01:47;;;;;;;;;7.50;7.50;;;;;21.61;40.68;101877.66;5088425;27;66994;-72
2023/05/26 02:04:12;;;;;;;;;6.25;6.25;;;;;21.61;40.89;101885.66;5068397;28;45230;-72
2023/05/26 02:06:39;;;;;;;;;8.25;7.00;;;;;21.60;40.66;101883.97;5075663;27;45423;-72
2023/05/26 02:09:05;;;;;;;;;8.75;7.50;;;;;21.60;40.71;101886.63;5050243;28;45445;-72
2023/05/26 02:11:31;;;;;;;;;9.00;9.00;;;;;21.59;40.94;101884.88;5065537;28;45617;-72
2023/05/26 02:13:56;;;;;;;;;8.75;8.75;;;;;21.58;40.81;101883.19;5074198;28;45475;-72
2023/05/26 02:16:22;;;;;;;;;11.00;8.50;;;;;21.60;41.07;101889.28;5085268;27;53919;-72
2023/05/26 02:18:48;;;;;;;;;7.25;5.25;;;;;21.57;40.95;101886.78;5071272;28;45465;-72
2023/05/26 02:21:14;;;;;;;;;7.00;6.00;;;;;21.55;40.76;101877.16;5048344;28;45561;-72
2023/05/26 02:23:39;;;;;;;;;7.75;7.25;;;;;21.58;40.81;101880.53;5063800;28;45358;-72
2023/05/26 02:26:05;;;;;;;;;10.25;6.00;;;;;21.58;41.19;101882.31;5090990;27;45420;-72
2023/05/26 02:28:30;;;;;;;;;8.50;7.00;;;;;21.57;40.87;101885.94;5071347;28;63836;-72
2023/05/26 02:30:55;;;;;;;;;7.50;6.25;;;;;21.57;41.29;101877.94;5060702;27;70303;-72
2023/05/26 02:33:21;;;;;;;;;8.50;7.50;;;;;21.58;40.73;101885.84;5057968;28;60146;-72
2023/05/26 02:35:46;;;;;;;;;11.25;9.00;;;;;21.56;40.72;101877.06;5068004;28;46946;-72
2023/05/26 02:38:11;;;;;;;;;7.00;6.75;;;;;21.56;40.81;101877.06;5067618;27;68028;-72
2023/05/26 02:40:37;;;;;;;;;11.25;7.00;;;;;21.57;41.19;101877.94;5073666;28;70042;-71
2023/05/26 02:43:02;;;;;;;;;8.00;6.00;;;;;21.57;41.22;101885.94;5071526;28;67780;-72
2023/05/26 02:45:28;;;;;;;;;6.25;6.00;;;;;21.54;40.62;101881.63;5064576;27;68944;-72
2023/05/26 02:47:53;;;;;;;;;8.25;6.25;;;;;21.56;41.14;101881.53;5070697;28;45304;-72
2023/05/26 02:50:19;;;;;;;;;6.25;6.00;;;;;21.56;40.81;101881.53;5062887;28;45445;-72
2023/05/26 02:52:44;;;;;;;;;6.75;5.00;;;;;21.54;41.08;101878.09;5061782;27;71358;-72
2023/05/26 02:55:11;;;;;;;;;7.50;5.75;;;;;21.55;41.27;101875.34;5070067;27;45365;-72
2023/05/26 02:57:37;;;;;;;;;8.00;4.50;;;;;21.54;40.88;101870.97;5061847;27;45730;-72
2023/05/26 03:00:07;;;;;;;;;8.75;7.00;;;;;21.54;41.28;101870.09;5062681;27;45644;-72
2023/05/26 03:02:32;;;;;;;;;8.00;7.00;;;;;21.54;40.88;101878.09;5070118;27;47004;-72
2023/05/26 03:04:58;;;;;;;;;9.50;6.50;;;;;21.53;41.16;101879.03;5066599;27;45209;-72
2023/05/26 03:07:24;;;;;;;;;6.25;6.25;;;;;21.52;41.06;101875.53;5075188;27;45470;-72
2023/05/26 03:09:49;;;;;;;;;6.00;6.00;;;;;21.52;40.90;101874.66;5065515;27;45306;-72
2023/05/26 03:12:15;;;;;;;;;8.25;5.75;;;;;21.51;41.23;101871.13;5061956;27;45435;-72
2023/05/26 03:14:41;;;;;;;;;6.00;5.50;;;;;21.51;40.82;101867.59;5065899;27;45407;-72
2023/05/26 03:17:07;;;;;;;;;7.00;6.50;;;;;21.51;40.96;101865.78;5062664;28;45536;-72
2023/05/26 03:19:32;;;;;;;;;6.00;5.00;;;;;21.50;41.12;101860.56;5062697;27;60712;-71
2023/05/26 03:21:58;;;;;;;;;5.25;4.50;;;;;21.51;40.87;101863.13;5066683;28;45413;-72
2023/05/26 03:24:23;;;;;;;;;7.50;6.50;;;;;21.49;40.92;101859.69;5065844;27;67173;-72
2023/05/26 03:26:48;;;;;;;;;6.50;6.00;;;;;21.49;41.15;101865.03;5056346;28;45374;-72
2023/05/26 03:29:14;;;;;;;;;5.00;5.00;;;;;21.48;40.86;101868.66;5065049;27;45490;-72
2023/05/26 03:31:40;;;;;;;;;6.00;5.50;;;;;21.47;40.69;101864.25;5076091;27;48265;-72
2023/05/26 03:34:05;;;;;;;;;9.75;4.25;;;;;21.48;40.89;101868.66;5067591;28;45509;-72
2023/05/26 03:36:30;;;;;;;;;7.25;4.75;;;;;21.49;40.86;101869.50;5068758;27;69421;-72
2023/05/26 03:38:55;;;;;;;;;6.00;6.00;;;;;21.48;40.74;101868.66;5062447;27;45494;-72
2023/05/26 03:41:21;;;;;;;;;8.50;6.75;;;;;21.48;40.87;101873.09;5063367;28;67879;-72
2023/05/26 03:43:47;;;;;;;;;7.00;6.00;;;;;21.48;40.88;101870.44;5061711;28;65923;-72
2023/05/26 03:46:13;;;;;;;;;7.75;5.75;;;;;21.46;40.61;101862.56;5065588;28;45641;-72
2023/05/26 03:48:38;;;;;;;;;9.25;6.50;;;;;21.47;41.32;101866.91;5070181;28;53785;-71
2023/05/26 03:51:03;;;;;;;;;6.25;5.00;;;;;21.47;40.78;101864.25;5084068;27;72312;-72
2023/05/26 03:53:29;;;;;;;;;5.25;4.00;;;;;21.47;40.96;101861.59;5065200;28;45541;-72
2023/05/26 03:55:54;;;;;;;;;6.00;6.00;;;;;21.47;41.06;101868.72;5064235;28;45289;-72
2023/05/26 03:58:20;;;;;;;;;6.25;5.25;;;;;21.45;41.21;101860.78;5071387;28;45507;-72
2023/05/26 04:00:46;;;;;;;;;5.75;4.50;;;;;21.46;40.59;101862.56;5070989;28;72394;-72
2023/05/26 04:03:11;;;;;;;;;8.25;7.75;;;;;21.45;40.75;101858.13;5056803;28;45447;-72
2023/05/26 04:05:36;;;;;;;;;7.75;4.50;;;;;21.46;41.05;101859.88;5062922;28;65648;-72
2023/05/26 04:08:02;;;;;;;;;5.00;4.00;;;;;21.44;41.13;101861.72;5074862;28;68362;-72
2023/05/26 04:10:27;;;;;;;;;7.50;6.00;;;;;21.45;40.86;101855.47;5063303;28;46182;-72
2023/05/26 04:12:52;;;;;;;;;8.25;6.50;;;;;21.46;41.11;101856.34;5063829;28;45430;-72
2023/05/26 04:15:18;;;;;;;;;6.25;6.25;;;;;21.43;41.21;101857.34;5057551;28;57232;-72
2023/05/26 04:17:43;;;;;;;;;6.50;6.00;;;;;21.42;40.74;101852.97;5064840;28;69032;-72
2023/05/26 04:20:10;;;;;;;;;5.00;5.00;;;;;21.41;41.27;101857.44;5069358;28;46967;-72
2023/05/26 04:22:36;;;;;;;;;8.00;5.00;;;;;21.42;40.60;101864.50;5064657;28;45383;-71
2023/05/26 04:25:01;;;;;;;;;6.00;3.00;;;;;21.41;41.06;101862.75;5057687;28;45288;-71
2023/05/26 04:27:27;;;;;;;;;5.50;5.00;;;;;21.42;41.46;101864.50;5064976;28;45290;-72
2023/05/26 04:29:52;;;;;;;;;7.50;5.25;;;;;21.42;40.92;101872.47;5051233;28;67643;-72
2023/05/26 04:32:20;;;;;;;;;6.25;4.50;;;;;21.42;40.76;101868.94;5064175;27;45356;-72
2023/05/26 04:34:45;;;;;;;;;5.00;4.25;;;;;21.41;40.85;101864.56;5062451;28;45579;-71
2023/05/26 04:37:11;;;;;;;;;8.00;5.50;;;;;21.42;40.68;101871.59;5067959;28;45421;-72
2023/05/26 04:39:36;;;;;;;;;5.00;4.50;;;;;21.39;41.09;101862.00;5075695;28;47207;-72
2023/05/26 04:42:03;;;;;;;;;5.50;4.50;;;;;21.39;41.21;101867.31;5072226;27;68371;-72
2023/05/26 04:44:29;;;;;;;;;9.25;5.50;;;;;21.39;40.71;101875.31;5071133;28;45512;-72
2023/05/26 04:46:54;;;;;;;;;10.75;5.00;;;;;21.38;40.84;101870.91;5064115;28;45804;-72
2023/05/26 04:49:22;;;;;;;;;5.00;4.75;;;;;21.38;41.27;101875.38;5067296;27;46553;-72
2023/05/26 04:51:50;;;;;;;;;8.25;4.00;;;;;21.37;41.24;101874.53;5082368;27;45816;-72
2023/05/26 04:54:16;;;;;;;;;6.00;5.25;;;;;21.37;40.91;101879.88;5067389;28;45411;-72
2023/05/26 04:56:41;;;;;;;;;8.00;6.00;;;;;21.37;40.67;101879.88;5079118;27;45324;-72
2023/05/26 04:59:07;;;;;;;;;6.00;4.00;;;;;21.37;41.22;101889.63;5073019;28;63926;-72
2023/05/26 05:01:32;;;;;;;;;7.00;5.00;;;;;21.38;41.15;101896.69;5068656;27;45549;-72
2023/05/26 05:03:58;;;;;;;;;5.25;4.75;;;;;21.37;40.89;101892.28;5076089;27;54532;-71
2023/05/26 05:06:23;;;;;;;;;7.25;6.00;;;;;21.37;40.89;101890.50;5063465;27;69181;-72
2023/05/26 05:08:48;;;;;;;;;8.75;5.00;;;;;21.37;40.78;101892.28;5073882;27;47453;-72
2023/05/26 05:11:14;;;;;;;;;10.50;6.50;;;;;21.36;40.70;101890.59;5076482;27;57631;-72
2023/05/26 05:13:39;;;;;;;;;7.75;5.75;;;;;21.35;41.25;101892.38;5074273;27;45370;-72
2023/05/26 05:16:04;;;;;;;;;8.50;6.50;;;;;21.35;41.05;101896.84;5065536;27;45656;-72
2023/05/26 05:18:30;;;;;;;;;6.50;6.00;;;;;21.35;41.32;101895.03;5074939;27;49699;-72
2023/05/26 05:20:56;;;;;;;;;8.25;4.75;;;;;21.35;40.86;101908.34;5085323;27;66652;-72
2023/05/26 05:23:21;;;;;;;;;5.00;4.00;;;;;21.34;41.01;101908.47;5085677;27;45355;-72
2023/05/26 05:25:47;;;;;;;;;7.00;5.00;;;;;21.35;40.71;101915.47;5057161;28;63198;-72
2023/05/26 05:28:12;;;;;;;;;4.25;4.25;;;;;21.35;41.13;101918.16;5068460;27;47320;-72
2023/05/26 05:30:37;;;;;;;;;7.75;5.00;;;;;21.37;41.10;101929.56;5063313;27;45235;-71
2023/05/26 05:33:03;;;;;;;;;4.75;3.75;;;;;21.35;40.61;101919.00;5067569;27;50204;-71
2023/05/26 05:35:28;;;;;;;;;9.75;6.00;;;;;21.34;40.95;101919.97;5066985;28;56726;-73
2023/05/26 05:37:56;;;;;;;;;10.25;5.75;;;;;21.36;40.76;101927.88;5067999;27;60944;-72
2023/05/26 05:40:21;;;;;;;;;3.75;3.50;;;;;21.35;40.65;101927.00;5069855;27;45433;-72
2023/05/26 05:42:47;;;;;;;;;9.50;5.50;;;;;21.34;40.72;101921.78;5058734;28;67936;-71
2023/05/26 05:45:12;;;;;;;;;8.00;6.75;;;;;21.34;40.80;101919.97;5073456;27;62423;-71
2023/05/26 05:47:37;;;;;;;;;8.75;5.00;;;;;21.37;41.27;101924.25;5057437;28;75842;-71
2023/05/26 05:50:03;;;;;;;;;6.00;4.00;;;;;21.36;41.42;101928.72;5068762;27;66255;-71
2023/05/26 05:52:28;;;;;;;;;8.50;6.75;;;;;21.36;40.93;101928.72;5066998;28;45474;-72
2023/05/26 05:54:54;;;;;;;;;5.50;5.50;;;;;21.36;41.40;101928.72;5078391;27;45639;-71
2023/05/26 05:57:20;;;;;;;;;6.50;5.00;;;;;21.37;40.93;101929.56;5076725;28;48106;-71
2023/05/26 05:59:45;;;;;;;;;6.75;6.00;;;;;21.37;41.35;101935.78;5075996;27;73019;-71
2023/05/26 06:02:10;;;;;;;;;6.50;5.00;;;;;21.35;41.27;101934.97;5052417;28;45401;-71
2023/05/26 06:04:36;;;;;;;;;9.25;6.25;;;;;21.39;41.14;101935.72;5060076;28;74922;-71
2023/05/26 06:07:01;;;;;;;;;6.25;5.00;;;;;21.37;41.33;101942.88;5078651;28;69781;-71
2023/05/26 06:09:27;;;;;;;;;6.25;5.50;;;;;21.37;41.04;101933.13;5067397;27;69256;-72
2023/05/26 06:11:52;;;;;;;;;8.00;4.25;;;;;21.39;41.12;101938.38;5088245;27;45256;-73
2023/05/26 06:14:18;;;;;;;;;5.00;4.00;;;;;21.41;41.21;101952.47;5061210;28;48525;-70
2023/05/26 06:16:43;;;;;;;;;5.75;5.25;;;;;21.38;41.37;101953.47;5072783;28;46249;-72
2023/05/26 06:19:08;;;;;;;;;6.75;4.75;;;;;21.40;41.60;101948.91;5068164;27;63280;-72
2023/05/26 06:21:34;;;;;;;;;6.25;5.00;;;;;21.43;41.47;101950.56;5074103;27;48846;-73
2023/05/26 06:23:59;;;;;;;;;5.50;4.00;;;;;21.42;41.38;101941.72;5065213;28;45453;-73
2023/05/26 06:26:25;;;;;;;;;5.25;4.50;;;;;21.43;41.91;101950.56;5077494;27;51079;-74
2023/05/26 06:28:50;;;;;;;;;5.00;4.00;;;;;21.46;41.75;101947.78;5062530;27;45788;-72
2023/05/26 06:31:15;;;;;;;;;6.75;5.00;;;;;21.47;41.70;101962.78;5066597;27;50197;-71
2023/05/26 06:33:41;;;;;;;;;6.50;4.00;;;;;21.48;42.18;101951.22;5069348;27;72944;-74
2023/05/26 06:36:06;;;;;;;;;4.50;4.00;;;;;21.49;41.92;101960.06;5064678;28;74685;-74
2023/05/26 06:38:32;;;;;;;;;6.50;4.75;;;;;21.50;41.64;101959.13;5067659;27;45314;-72
2023/05/26 06:40:57;;;;;;;;;6.00;5.50;;;;;21.50;42.18;101954.66;5075130;28;65656;-72
2023/05/26 06:43:22;;;;;;;;;5.00;5.00;;;;;21.51;42.25;101952.84;5066521;28;52620;-72
2023/05/26 06:45:48;;;;;;;;;9.50;5.25;;;;;21.54;41.90;101942.88;5061032;27;75455;-71
2023/05/26 06:48:13;;;;;;;;;6.75;4.50;;;;;21.56;42.20;101942.81;5067118;28;72624;-72
2023/05/26 06:50:38;;;;;;;;;5.75;4.50;;;;;21.56;42.26;101946.31;5076560;28;61121;-73
2023/05/26 06:53:04;;;;;;;;;9.50;5.50;;;;;21.55;42.01;101949.94;5068753;27;45517;-72
2023/05/26 06:55:29;;;;;;;;;6.00;5.00;;;;;21.57;41.92;101948.06;5072427;27;45312;-72
2023/05/26 06:57:55;;;;;;;;;6.25;4.50;;;;;21.56;42.36;101940.13;5067029;27;45635;-71
2023/05/26 07:00:21;;;;;;;;;7.25;4.50;;;;;21.60;42.35;101950.56;5072590;27;54515;-70
2023/05/26 07:02:47;;;;;;;;;9.75;5.25;;;;;21.60;41.89;101937.25;5067267;27;45602;-74
2023/05/26 07:05:12;;;;;;;;;6.00;5.00;;;;;21.63;42.27;101941.53;5058555;28;47030;-73
2023/05/26 07:07:37;;;;;;;;;10.00;5.75;;;;;21.64;42.35;101937.94;5065802;27;54760;-73
2023/05/26 07:10:03;;;;;;;;;4.50;4.25;;;;;21.66;42.16;101940.50;5084648;27;66888;-71
2023/05/26 07:12:28;;;;;;;;;4.25;4.25;;;;;21.67;42.39;101943.06;5055878;28;45498;-69
2023/05/26 07:14:53;;;;;;;;;9.50;4.25;;;;;21.68;41.89;101944.81;5072930;27;54439;-69
2023/05/26 07:17:19;;;;;;;;;8.75;6.00;;;;;21.70;41.88;101936.72;5067602;27;68772;-71
2023/05/26 07:19:44;;;;;;;;;4.00;4.00;;;;;21.71;42.38;101931.31;5066237;28;53115;-71
